createdAt,value
2023-12-30T00:00:37.941Z,9.73
2023-12-30T00:03:05.193Z,10.95
2023-12-30T00:05:32.275Z,11.13
2023-12-30T00:07:59.340Z,11.82
2023-12-30T00:10:26.558Z,10.90
2023-12-30T00:12:53.737Z,13.10
2023-12-30T00:15:22.104Z,12.52
2023-12-30T00:17:49.322Z,13.63
2023-12-30T00:20:16.345Z,15.50
2023-12-30T00:22:43.384Z,14.25
2023-12-30T00:25:11.490Z,15.07
2023-12-30T00:27:38.675Z,16.05
2023-12-30T00:30:06.618Z,14.32
2023-12-30T00:32:33.992Z,15.05
2023-12-30T00:35:01.303Z,14.00
2023-12-30T00:37:28.410Z,14.70
2023-12-30T00:39:55.382Z,13.73
2023-12-30T00:42:22.516Z,13.32
2023-12-30T00:44:49.526Z,12.88
2023-12-30T00:47:16.343Z,12.55
2023-12-30T00:49:43.401Z,12.07
2023-12-30T00:52:11.346Z,12.13
2023-12-30T00:54:44.630Z,12.18
2023-12-30T00:57:17.568Z,10.90
2023-12-30T00:59:44.577Z,10.98
2023-12-30T01:02:11.572Z,11.47
2023-12-30T01:04:38.744Z,12.30
2023-12-30T01:07:05.617Z,11.98
2023-12-30T01:09:32.764Z,11.02
2023-12-30T01:11:59.778Z,11.02
2023-12-30T01:14:26.540Z,12.33
2023-12-30T01:16:53.319Z,11.07
2023-12-30T01:19:20.180Z,11.50
2023-12-30T01:21:47.792Z,11.30
2023-12-30T01:24:14.664Z,12.05
2023-12-30T01:26:41.651Z,10.40
2023-12-30T01:29:08.892Z,10.98
2023-12-30T01:31:35.989Z,11.38
2023-12-30T01:34:03.182Z,11.88
2023-12-30T01:36:30.195Z,11.35
2023-12-30T01:38:57.278Z,11.30
2023-12-30T01:41:24.185Z,11.05
2023-12-30T01:43:51.261Z,10.80
2023-12-30T01:46:18.285Z,12.05
2023-12-30T01:48:45.764Z,12.23
2023-12-30T01:51:24.372Z,11.30
2023-12-30T01:53:53.831Z,10.90
2023-12-30T01:56:21.887Z,11.18
2023-12-30T01:58:53.737Z,10.77
2023-12-30T02:01:23.856Z,10.85
2023-12-30T02:03:51.193Z,10.97
2023-12-30T02:06:18.310Z,11.35
2023-12-30T02:08:45.343Z,11.52
2023-12-30T02:11:13.294Z,11.18
2023-12-30T02:13:43.926Z,11.88
2023-12-30T02:16:11.985Z,10.83
2023-12-30T02:18:39.434Z,12.15
2023-12-30T02:21:06.616Z,11.80
2023-12-30T02:23:33.607Z,11.40
2023-12-30T02:26:00.380Z,11.20
2023-12-30T02:28:27.374Z,10.77
2023-12-30T02:30:54.485Z,10.45
2023-12-30T02:33:21.571Z,11.00
2023-12-30T02:35:48.399Z,11.38
2023-12-30T02:38:15.480Z,10.23
2023-12-30T02:40:42.331Z,10.47
2023-12-30T02:43:09.461Z,10.57
2023-12-30T02:45:36.804Z,9.30
2023-12-30T02:48:04.399Z,9.80
2023-12-30T02:50:31.210Z,9.23
2023-12-30T02:52:58.317Z,9.17
2023-12-30T02:55:25.408Z,9.23
2023-12-30T02:57:52.470Z,9.55
2023-12-30T03:00:19.845Z,10.27
2023-12-30T03:02:47.272Z,10.30
2023-12-30T03:05:14.734Z,9.50
2023-12-30T03:07:41.960Z,9.15
2023-12-30T03:10:09.885Z,10.40
2023-12-30T03:12:37.034Z,11.50
2023-12-30T03:15:04.028Z,11.38
2023-12-30T03:17:31.132Z,9.40
2023-12-30T03:19:58.299Z,10.88
2023-12-30T03:22:25.958Z,11.40
2023-12-30T03:24:53.096Z,10.80
2023-12-30T03:27:20.240Z,10.60
2023-12-30T03:29:47.315Z,11.13
2023-12-30T03:32:14.921Z,10.20
2023-12-30T03:34:42.039Z,12.20
2023-12-30T03:37:09.074Z,11.90
2023-12-30T03:39:36.485Z,12.48
2023-12-30T03:42:03.662Z,12.07
2023-12-30T03:44:30.727Z,12.40
2023-12-30T03:46:57.798Z,12.27
2023-12-30T03:49:25.180Z,12.30
2023-12-30T03:51:52.427Z,12.35
2023-12-30T03:54:19.386Z,13.07
2023-12-30T03:56:48.367Z,11.48
2023-12-30T03:59:15.491Z,12.80
2023-12-30T04:01:44.172Z,13.07
2023-12-30T04:04:11.711Z,12.13
2023-12-30T04:06:38.801Z,12.10
2023-12-30T04:09:05.665Z,11.57
2023-12-30T04:11:32.458Z,13.32
2023-12-30T04:13:59.574Z,12.02
2023-12-30T04:16:26.672Z,12.35
2023-12-30T04:18:53.986Z,12.50
2023-12-30T04:21:21.217Z,12.48
2023-12-30T04:23:48.315Z,11.73
2023-12-30T04:26:15.343Z,11.88
2023-12-30T04:28:42.399Z,11.88
2023-12-30T04:31:09.506Z,11.90
2023-12-30T04:33:36.708Z,11.20
2023-12-30T04:36:04.299Z,11.48
2023-12-30T04:38:31.108Z,10.50
2023-12-30T04:40:57.895Z,12.38
2023-12-30T04:43:24.904Z,11.63
2023-12-30T04:45:51.955Z,11.07
2023-12-30T04:48:19.082Z,11.73
2023-12-30T04:50:45.929Z,12.23
2023-12-30T04:53:12.806Z,10.23
2023-12-30T04:55:39.832Z,10.83
2023-12-30T04:58:06.887Z,10.30
2023-12-30T05:00:34.647Z,11.32
2023-12-30T05:03:01.780Z,11.40
2023-12-30T05:05:29.173Z,11.98
2023-12-30T05:07:56.218Z,12.43
2023-12-30T05:10:23.295Z,10.85
2023-12-30T05:12:50.956Z,11.70
2023-12-30T05:15:18.149Z,12.32
2023-12-30T05:17:45.345Z,12.07
2023-12-30T05:20:13.925Z,13.20
2023-12-30T05:22:41.766Z,13.25
2023-12-30T05:25:09.348Z,13.70
2023-12-30T05:27:36.982Z,13.52
2023-12-30T05:30:05.564Z,13.52
2023-12-30T05:32:32.648Z,13.73
2023-12-30T05:35:00.591Z,13.43
2023-12-30T05:37:27.517Z,13.43
2023-12-30T05:39:55.147Z,12.57
2023-12-30T05:42:22.326Z,12.98
2023-12-30T05:44:49.306Z,14.57
2023-12-30T05:47:16.306Z,15.20
2023-12-30T05:49:43.159Z,14.43
2023-12-30T05:52:10.298Z,14.38
2023-12-30T05:54:37.331Z,13.93
2023-12-30T05:57:04.563Z,12.63
2023-12-30T05:59:31.466Z,14.02
2023-12-30T06:02:00.089Z,14.00
2023-12-30T06:04:27.335Z,15.55
2023-12-30T06:06:55.342Z,14.43
2023-12-30T06:09:22.497Z,14.30
2023-12-30T06:11:50.013Z,14.40
2023-12-30T06:14:17.268Z,14.27
2023-12-30T06:16:44.304Z,13.13
2023-12-30T06:19:12.884Z,12.20
2023-12-30T06:21:40.702Z,12.87
2023-12-30T06:24:07.743Z,13.15
2023-12-30T06:26:39.190Z,12.10
2023-12-30T06:29:07.835Z,14.10
2023-12-30T06:31:34.885Z,12.50
2023-12-30T06:34:01.989Z,11.93
2023-12-30T06:36:29.005Z,13.25
2023-12-30T06:38:56.029Z,12.85
2023-12-30T06:41:23.083Z,13.10
2023-12-30T06:43:50.162Z,13.07
2023-12-30T06:46:21.374Z,12.43
2023-12-30T06:48:48.573Z,12.10
2023-12-30T06:51:15.506Z,14.15
2023-12-30T06:53:42.485Z,13.15
2023-12-30T06:56:09.464Z,13.25
2023-12-30T06:58:37.118Z,10.77
2023-12-30T07:01:06.138Z,11.77
2023-12-30T07:03:33.544Z,12.75
2023-12-30T07:06:00.737Z,12.95
2023-12-30T07:08:27.864Z,12.32
2023-12-30T07:10:54.954Z,12.07
2023-12-30T07:13:22.067Z,11.25
2023-12-30T07:15:49.092Z,13.00
2023-12-30T07:18:16.387Z,13.15
2023-12-30T07:20:43.503Z,16.38
2023-12-30T07:23:10.560Z,15.07
2023-12-30T07:25:37.691Z,14.75
2023-12-30T07:28:04.938Z,16.48
2023-12-30T07:30:32.024Z,16.42
2023-12-30T07:32:59.310Z,16.30
2023-12-30T07:35:28.487Z,15.30
2023-12-30T07:37:55.348Z,16.52
2023-12-30T07:40:22.627Z,16.67
2023-12-30T07:42:49.494Z,15.18
2023-12-30T07:45:16.354Z,14.52
2023-12-30T07:47:43.369Z,15.60
2023-12-30T07:50:10.379Z,16.33
2023-12-30T07:52:37.494Z,16.42
2023-12-30T07:55:04.896Z,17.33
2023-12-30T07:57:31.935Z,18.25
2023-12-30T07:59:59.004Z,15.67
2023-12-30T08:02:25.869Z,16.17
2023-12-30T08:04:55.644Z,16.40
2023-12-30T08:07:22.983Z,16.70
2023-12-30T08:09:50.045Z,16.27
2023-12-30T08:12:17.050Z,15.83
2023-12-30T08:14:43.849Z,16.20
2023-12-30T08:17:10.720Z,17.92
2023-12-30T08:19:37.871Z,17.48
2023-12-30T08:22:04.910Z,17.98
2023-12-30T08:24:31.636Z,17.70
2023-12-30T08:26:58.511Z,17.23
2023-12-30T08:29:25.569Z,18.85
2023-12-30T08:31:52.389Z,18.20
2023-12-30T08:34:21.884Z,17.65
2023-12-30T08:36:48.774Z,19.33
2023-12-30T08:39:15.773Z,19.08
2023-12-30T08:41:42.783Z,18.33
2023-12-30T08:44:10.019Z,18.50
2023-12-30T08:46:37.653Z,18.92
2023-12-30T08:49:07.411Z,18.50
2023-12-30T08:51:36.121Z,18.63
2023-12-30T08:54:03.125Z,18.58
2023-12-30T08:56:34.567Z,19.20
2023-12-30T08:59:01.974Z,19.10
2023-12-30T09:01:28.968Z,19.53
2023-12-30T09:03:56.157Z,18.25
2023-12-30T09:06:23.208Z,18.25
2023-12-30T09:08:50.295Z,18.20
2023-12-30T09:11:20.778Z,16.98
2023-12-30T09:13:48.819Z,17.23
2023-12-30T09:16:15.732Z,18.35
2023-12-30T09:18:43.397Z,16.92
2023-12-30T09:21:10.800Z,16.92
2023-12-30T09:23:38.604Z,18.23
2023-12-30T09:26:05.856Z,18.47
2023-12-30T09:28:33.400Z,17.40
2023-12-30T09:31:00.963Z,18.58
2023-12-30T09:33:27.982Z,18.67
2023-12-30T09:35:56.040Z,18.42
2023-12-30T09:38:26.559Z,17.83
2023-12-30T09:40:55.402Z,18.55
2023-12-30T09:43:25.125Z,18.65
2023-12-30T09:45:52.970Z,18.48
2023-12-30T09:48:26.903Z,20.00
2023-12-30T09:50:59.918Z,21.17
2023-12-30T09:53:28.102Z,20.73
2023-12-30T09:55:55.268Z,19.48
2023-12-30T09:58:23.750Z,17.77
2023-12-30T10:00:51.198Z,18.13
2023-12-30T10:03:20.085Z,16.33
2023-12-30T10:05:48.512Z,16.63
2023-12-30T10:08:16.359Z,16.55
2023-12-30T10:10:54.735Z,17.63
2023-12-30T10:13:27.249Z,17.73
2023-12-30T10:15:56.429Z,18.93
2023-12-30T10:18:23.714Z,18.05
2023-12-30T10:20:50.821Z,17.35
2023-12-30T10:23:17.774Z,18.00
2023-12-30T10:25:46.930Z,17.88
2023-12-30T10:28:14.467Z,17.47
2023-12-30T10:30:41.649Z,19.20
2023-12-30T10:33:10.739Z,18.90
2023-12-30T10:35:42.377Z,18.60
2023-12-30T10:38:10.688Z,19.10
2023-12-30T10:40:37.685Z,19.83
2023-12-30T10:43:05.645Z,19.98
2023-12-30T10:45:32.648Z,20.15
2023-12-30T10:48:01.068Z,20.80
2023-12-30T10:50:28.815Z,19.63
2023-12-30T10:53:06.549Z,20.47
2023-12-30T10:55:34.807Z,18.63
2023-12-30T10:58:14.898Z,19.02
2023-12-30T11:00:43.921Z,19.05
2023-12-30T11:03:11.240Z,19.67
2023-12-30T11:06:06.130Z,17.97
2023-12-30T11:08:33.273Z,17.17
2023-12-30T11:11:03.768Z,15.15
2023-12-30T11:13:37.678Z,12.55
2023-12-30T11:16:15.347Z,8.70
2023-12-30T11:18:54.877Z,6.60
2023-12-30T11:21:37.653Z,6.05
2023-12-30T11:24:06.576Z,5.40
2023-12-30T11:26:35.357Z,5.55
2023-12-30T11:29:03.133Z,5.65
2023-12-30T11:31:35.256Z,5.83
2023-12-30T11:34:03.057Z,8.07
2023-12-30T11:36:30.361Z,15.75
2023-12-30T11:38:59.197Z,16.13
2023-12-30T11:41:27.462Z,11.60
2023-12-30T11:43:59.439Z,8.47
2023-12-30T11:46:29.810Z,5.70
2023-12-30T11:49:00.295Z,5.30
2023-12-30T11:51:31.742Z,4.80
2023-12-30T11:54:04.054Z,4.85
2023-12-30T11:56:31.273Z,4.80
2023-12-30T11:58:58.530Z,6.53
2023-12-30T12:01:25.693Z,17.67
2023-12-30T12:03:53.931Z,19.75
2023-12-30T12:06:20.901Z,21.75
2023-12-30T12:08:48.630Z,19.73
2023-12-30T12:11:15.537Z,16.73
2023-12-30T12:13:42.566Z,12.10
2023-12-30T12:16:09.854Z,6.57
2023-12-30T12:18:37.574Z,6.60
2023-12-30T12:21:12.548Z,6.10
2023-12-30T12:23:39.379Z,5.10
2023-12-30T12:26:08.111Z,5.00
2023-12-30T12:28:35.237Z,4.63
2023-12-30T12:31:03.295Z,5.53
2023-12-30T12:33:30.774Z,6.03
2023-12-30T12:35:57.662Z,5.80
2023-12-30T12:38:24.896Z,5.70
2023-12-30T12:40:52.507Z,5.35
2023-12-30T12:43:19.712Z,4.47
2023-12-30T12:45:46.512Z,4.57
2023-12-30T12:48:13.540Z,4.22
2023-12-30T12:50:40.702Z,4.03
2023-12-30T12:53:07.456Z,4.05
2023-12-30T12:55:34.334Z,3.60
2023-12-30T12:58:01.437Z,3.20
2023-12-30T13:00:28.491Z,3.88
2023-12-30T13:02:55.470Z,4.00
2023-12-30T13:05:23.688Z,5.30
2023-12-30T13:07:51.182Z,4.45
2023-12-30T13:10:37.581Z,3.20
2023-12-30T13:13:08.218Z,2.78
2023-12-30T13:15:36.027Z,2.70
2023-12-30T13:18:06.549Z,2.42
2023-12-30T13:20:33.699Z,2.50
2023-12-30T13:23:04.551Z,2.40
2023-12-30T13:25:31.891Z,2.10
2023-12-30T13:27:59.490Z,2.70
2023-12-30T13:30:26.443Z,2.47
2023-12-30T13:33:02.627Z,2.47
2023-12-30T13:35:39.965Z,2.37
2023-12-30T13:38:13.000Z,2.00
2023-12-30T13:40:42.244Z,2.13
2023-12-30T13:43:10.588Z,2.13
2023-12-30T13:45:48.137Z,1.90
2023-12-30T13:48:34.043Z,1.90
2023-12-30T13:51:03.077Z,1.60
2023-12-30T13:53:30.255Z,1.80
2023-12-30T13:55:59.274Z,1.58
2023-12-30T13:58:26.160Z,1.73
2023-12-30T14:00:53.213Z,1.70
2023-12-30T14:03:20.519Z,1.60
2023-12-30T14:05:48.918Z,1.67
2023-12-30T14:08:28.240Z,2.10
2023-12-30T14:10:55.610Z,2.20
2023-12-30T14:13:24.518Z,1.77
2023-12-30T14:15:52.820Z,1.98
2023-12-30T14:18:20.470Z,2.00
2023-12-30T14:20:48.092Z,1.80
2023-12-30T14:23:15.403Z,1.95
2023-12-30T14:25:42.459Z,1.70
2023-12-30T14:28:10.759Z,1.80
2023-12-30T14:30:39.826Z,1.67
2023-12-30T14:33:07.374Z,1.92
2023-12-30T14:35:34.649Z,2.10
2023-12-30T14:38:02.801Z,2.20
2023-12-30T14:40:30.039Z,2.05
2023-12-30T14:42:57.162Z,2.42
2023-12-30T14:45:24.243Z,2.65
2023-12-30T14:47:51.263Z,3.22
2023-12-30T14:50:18.647Z,2.63
2023-12-30T14:52:45.802Z,2.80
2023-12-30T14:55:12.851Z,2.75
2023-12-30T14:57:41.132Z,3.20
2023-12-30T15:00:15.482Z,2.90
2023-12-30T15:02:44.058Z,3.93
2023-12-30T15:05:15.292Z,3.90
2023-12-30T15:07:44.572Z,4.45
2023-12-30T15:10:14.947Z,4.05
2023-12-30T15:12:44.035Z,4.45
2023-12-30T15:15:12.814Z,6.30
2023-12-30T15:17:40.065Z,6.03
2023-12-30T15:20:09.578Z,8.80
2023-12-30T15:22:36.791Z,14.77
2023-12-30T15:25:04.003Z,16.15
2023-12-30T15:27:31.419Z,16.97
2023-12-30T15:29:58.553Z,19.17
2023-12-30T15:32:25.730Z,24.10
2023-12-30T15:34:52.668Z,21.55
2023-12-30T15:37:19.783Z,21.60
2023-12-30T15:39:46.824Z,19.30
2023-12-30T15:42:13.842Z,18.73
2023-12-30T15:44:41.032Z,22.17
2023-12-30T15:47:10.923Z,23.55
2023-12-30T15:49:43.127Z,19.25
2023-12-30T15:52:11.592Z,17.27
2023-12-30T15:54:39.663Z,14.32
2023-12-30T15:57:06.837Z,15.07
2023-12-30T15:59:33.957Z,20.88
2023-12-30T16:02:01.338Z,19.05
2023-12-30T16:04:28.380Z,14.90
2023-12-30T16:06:55.294Z,10.15
2023-12-30T16:09:22.410Z,7.57
2023-12-30T16:11:50.152Z,11.60
2023-12-30T16:14:17.044Z,10.05
2023-12-30T16:16:47.161Z,7.53
2023-12-30T16:19:19.791Z,9.60
2023-12-30T16:21:51.008Z,11.50
2023-12-30T16:24:18.683Z,14.88
2023-12-30T16:26:46.016Z,12.88
2023-12-30T16:29:13.070Z,11.27
2023-12-30T16:31:40.354Z,11.82
2023-12-30T16:34:07.639Z,12.82
2023-12-30T16:36:36.357Z,11.60
2023-12-30T16:39:03.644Z,10.18
2023-12-30T16:41:30.826Z,9.80
2023-12-30T16:43:58.831Z,7.95
2023-12-30T16:46:25.948Z,7.35
2023-12-30T16:48:52.971Z,7.00
2023-12-30T16:51:20.043Z,6.13
2023-12-30T16:53:47.067Z,7.27
2023-12-30T16:56:16.714Z,6.65
2023-12-30T16:58:43.560Z,11.82
2023-12-30T17:01:10.446Z,12.75
2023-12-30T17:03:37.198Z,11.55
2023-12-30T17:06:04.839Z,9.73
2023-12-30T17:08:31.971Z,10.07
2023-12-30T17:10:59.530Z,11.05
2023-12-30T17:13:34.898Z,10.82
2023-12-30T17:16:06.941Z,8.30
2023-12-30T17:18:33.807Z,7.60
2023-12-30T17:21:00.826Z,8.60
2023-12-30T17:23:27.904Z,7.15
2023-12-30T17:25:54.930Z,8.13
2023-12-30T17:28:21.712Z,9.35
2023-12-30T17:30:49.278Z,7.83
2023-12-30T17:33:16.481Z,7.25
2023-12-30T17:35:44.339Z,8.00
2023-12-30T17:38:11.287Z,6.43
2023-12-30T17:40:39.170Z,5.93
2023-12-30T17:43:06.667Z,6.47
2023-12-30T17:45:33.898Z,6.22
2023-12-30T17:48:00.971Z,6.00
2023-12-30T17:50:27.982Z,6.70
2023-12-30T17:52:54.769Z,8.55
2023-12-30T17:55:21.780Z,14.27
2023-12-30T17:57:48.902Z,11.80
2023-12-30T18:00:15.891Z,9.75
2023-12-30T18:02:43.791Z,8.07
2023-12-30T18:05:11.226Z,8.63
2023-12-30T18:07:38.337Z,8.33
2023-12-30T18:10:05.599Z,7.38
2023-12-30T18:12:32.605Z,6.20
2023-12-30T18:14:59.679Z,6.00
2023-12-30T18:17:28.863Z,6.30
2023-12-30T18:19:55.899Z,6.63
2023-12-30T18:22:23.038Z,6.97
2023-12-30T18:24:49.953Z,6.90
2023-12-30T18:27:16.719Z,6.80
2023-12-30T18:29:43.581Z,6.38
2023-12-30T18:32:11.859Z,5.57
2023-12-30T18:34:42.043Z,4.93
2023-12-30T18:37:08.978Z,8.32
2023-12-30T18:39:36.339Z,8.77
2023-12-30T18:42:03.601Z,11.38
2023-12-30T18:44:30.851Z,12.73
2023-12-30T18:46:58.788Z,12.43
2023-12-30T18:49:25.780Z,11.23
2023-12-30T18:51:52.640Z,7.47
2023-12-30T18:54:19.448Z,6.55
2023-12-30T18:56:47.127Z,7.70
2023-12-30T18:59:14.209Z,6.93
2023-12-30T19:01:46.319Z,6.90
2023-12-30T19:04:13.977Z,6.05
2023-12-30T19:06:40.974Z,7.15
2023-12-30T19:09:08.802Z,5.03
2023-12-30T19:11:36.332Z,4.95
2023-12-30T19:14:03.159Z,5.18
2023-12-30T19:16:30.110Z,5.20
2023-12-30T19:18:57.366Z,6.50
2023-12-30T19:21:24.428Z,6.57
2023-12-30T19:23:51.238Z,5.97
2023-12-30T19:26:18.102Z,6.65
2023-12-30T19:28:44.884Z,5.75
2023-12-30T19:31:14.594Z,6.20
2023-12-30T19:33:43.127Z,7.50
2023-12-30T19:36:11.496Z,10.43
2023-12-30T19:38:39.057Z,13.05
2023-12-30T19:41:06.161Z,10.70
2023-12-30T19:43:35.325Z,11.35
2023-12-30T19:46:06.885Z,11.20
2023-12-30T19:48:35.072Z,11.40
2023-12-30T19:51:04.897Z,11.02
2023-12-30T19:53:32.528Z,10.27
2023-12-30T19:55:59.253Z,9.13
2023-12-30T19:58:27.817Z,8.70
2023-12-30T20:00:54.964Z,10.85
2023-12-30T20:03:21.850Z,9.55
2023-12-30T20:05:48.819Z,10.48
2023-12-30T20:08:16.047Z,10.52
2023-12-30T20:10:44.092Z,11.97
2023-12-30T20:13:11.331Z,11.90
2023-12-30T20:15:38.544Z,12.02
2023-12-30T20:18:06.097Z,10.80
2023-12-30T20:20:33.189Z,10.70
2023-12-30T20:23:01.076Z,10.07
2023-12-30T20:25:31.004Z,9.70
2023-12-30T20:27:58.846Z,8.88
2023-12-30T20:30:27.540Z,8.57
2023-12-30T20:32:54.881Z,5.32
2023-12-30T20:35:22.058Z,4.63
2023-12-30T20:37:48.950Z,5.13
2023-12-30T20:40:16.507Z,5.03
2023-12-30T20:42:43.318Z,5.82
2023-12-30T20:45:11.224Z,6.05
2023-12-30T20:47:38.794Z,5.67
2023-12-30T20:50:06.193Z,5.95
2023-12-30T20:52:33.326Z,6.25
2023-12-30T20:55:04.353Z,5.82
2023-12-30T20:57:31.839Z,5.82
2023-12-30T20:59:58.832Z,5.30
2023-12-30T21:02:26.061Z,6.43
2023-12-30T21:04:55.470Z,5.55
2023-12-30T21:07:22.628Z,5.80
2023-12-30T21:09:49.798Z,6.07
2023-12-30T21:12:16.876Z,5.43
2023-12-30T21:14:43.902Z,6.40
2023-12-30T21:17:11.300Z,7.30
2023-12-30T21:19:38.460Z,7.38
2023-12-30T21:22:06.612Z,8.20
2023-12-30T21:24:33.726Z,8.27
2023-12-30T21:27:00.823Z,6.53
2023-12-30T21:29:27.887Z,5.80
2023-12-30T21:31:55.895Z,5.72
2023-12-30T21:34:23.105Z,5.82
2023-12-30T21:36:50.200Z,6.33
2023-12-30T21:39:18.527Z,6.20
2023-12-30T21:41:45.504Z,6.03
2023-12-30T21:44:12.399Z,5.60
2023-12-30T21:46:46.402Z,5.80
2023-12-30T21:49:15.892Z,5.30
2023-12-30T21:51:44.044Z,5.50
2023-12-30T21:54:11.492Z,5.00
2023-12-30T21:56:38.325Z,4.68
2023-12-30T21:59:05.304Z,4.35
2023-12-30T22:01:32.863Z,4.30
2023-12-30T22:03:59.910Z,3.90
2023-12-30T22:06:26.776Z,3.55
2023-12-30T22:08:53.963Z,3.20
2023-12-30T22:11:21.002Z,3.90
2023-12-30T22:13:48.150Z,4.33
2023-12-30T22:16:14.984Z,6.00
2023-12-30T22:18:42.111Z,6.90
2023-12-30T22:21:09.215Z,5.45
2023-12-30T22:23:37.347Z,4.95
2023-12-30T22:26:04.286Z,4.03
2023-12-30T22:28:31.301Z,5.22
2023-12-30T22:30:58.388Z,4.72
2023-12-30T22:33:26.126Z,3.45
2023-12-30T22:35:53.217Z,3.05
2023-12-30T22:38:20.293Z,2.77
2023-12-30T22:40:47.044Z,2.85
2023-12-30T22:43:13.887Z,2.70
2023-12-30T22:45:42.086Z,2.78
2023-12-30T22:48:09.224Z,2.70
2023-12-30T22:50:36.512Z,2.77
2023-12-30T22:53:04.065Z,3.13
2023-12-30T22:55:31.378Z,3.90
2023-12-30T22:57:58.368Z,3.13
2023-12-30T23:00:28.570Z,3.65
2023-12-30T23:02:56.217Z,3.57
2023-12-30T23:05:23.481Z,3.08
2023-12-30T23:07:50.499Z,3.70
2023-12-30T23:10:17.605Z,4.35
2023-12-30T23:12:44.938Z,3.80
2023-12-30T23:15:13.217Z,4.07
2023-12-30T23:17:39.970Z,4.25
2023-12-30T23:20:10.164Z,3.72
2023-12-30T23:22:37.009Z,3.63
2023-12-30T23:25:06.271Z,4.10
2023-12-30T23:27:33.926Z,3.80
2023-12-30T23:30:04.578Z,4.85
2023-12-30T23:32:33.881Z,5.00
2023-12-30T23:35:01.486Z,4.20
2023-12-30T23:37:28.503Z,4.80
2023-12-30T23:39:55.686Z,4.37
2023-12-30T23:42:22.680Z,4.00
2023-12-30T23:44:49.708Z,3.65
2023-12-30T23:47:16.680Z,3.30
2023-12-30T23:49:43.758Z,3.10
2023-12-30T23:52:10.933Z,4.20
2023-12-30T23:54:38.001Z,3.88
2023-12-30T23:57:05.284Z,2.92
2023-12-30T23:59:32.094Z,3.67
